createdAt,value
2023-04-27T00:01:53.691Z,4.50
2023-04-27T00:04:21.436Z,4.13
2023-04-27T00:06:51.514Z,4.10
2023-04-27T00:09:19.091Z,4.00
2023-04-27T00:11:46.672Z,4.88
2023-04-27T00:14:14.177Z,3.88
2023-04-27T00:16:41.829Z,4.13
2023-04-27T00:19:10.083Z,3.75
2023-04-27T00:21:37.618Z,5.00
2023-04-27T00:24:07.273Z,4.45
2023-04-27T00:26:34.636Z,4.25
2023-04-27T00:29:02.944Z,4.20
2023-04-27T00:31:30.536Z,4.57
2023-04-27T00:33:58.075Z,4.25
2023-04-27T00:36:25.607Z,4.07
2023-04-27T00:38:53.338Z,4.63
2023-04-27T00:41:23.006Z,5.28
2023-04-27T00:43:50.410Z,4.22
2023-04-27T00:46:19.674Z,4.93
2023-04-27T00:48:47.673Z,4.75
2023-04-27T00:51:15.674Z,4.60
2023-04-27T00:53:43.574Z,4.20
2023-04-27T00:56:13.110Z,4.13
2023-04-27T00:58:41.881Z,4.15
2023-04-27T01:03:37.815Z,4.28
2023-04-27T01:06:07.449Z,3.80
2023-04-27T01:08:36.430Z,4.05
2023-04-27T01:11:03.871Z,4.18
2023-04-27T01:13:32.096Z,4.30
2023-04-27T01:16:00.852Z,4.40
2023-04-27T01:20:57.696Z,3.70
2023-04-27T01:23:27.503Z,4.25
2023-04-27T01:25:54.944Z,4.32
2023-04-27T01:28:22.282Z,3.72
2023-04-27T01:30:49.724Z,3.67
2023-04-27T01:33:17.142Z,4.15
2023-04-27T01:35:44.668Z,4.45
2023-04-27T01:38:12.358Z,4.60
2023-04-27T01:40:41.204Z,4.68
2023-04-27T01:45:36.134Z,4.20
2023-04-27T01:48:04.015Z,4.13
2023-04-27T01:50:31.575Z,3.67
2023-04-27T01:52:59.036Z,4.85
2023-04-27T01:55:26.706Z,4.70
2023-04-27T01:57:55.439Z,4.70
2023-04-27T02:02:57.496Z,4.50
2023-04-27T02:05:25.159Z,4.80
2023-04-27T02:07:53.679Z,4.38
2023-04-27T02:10:23.385Z,4.28
2023-04-27T02:12:57.243Z,4.80
2023-04-27T02:15:24.777Z,4.22
2023-04-27T02:17:52.321Z,4.13
2023-04-27T02:20:19.814Z,4.57
2023-04-27T02:22:47.230Z,4.22
2023-04-27T02:25:15.481Z,4.25
2023-04-27T02:27:43.630Z,4.53
2023-04-27T02:30:13.748Z,4.72
2023-04-27T02:32:42.087Z,4.43
2023-04-27T02:35:10.165Z,4.68
2023-04-27T02:37:37.650Z,4.55
2023-04-27T02:40:09.574Z,4.38
2023-04-27T02:42:38.855Z,4.00
2023-04-27T02:45:08.072Z,4.82
2023-04-27T02:47:38.704Z,3.92
2023-04-27T02:50:07.482Z,4.32
2023-04-27T02:52:35.942Z,4.50
2023-04-27T02:55:03.508Z,4.22
2023-04-27T02:57:31.746Z,4.20
2023-04-27T02:59:59.159Z,4.32
2023-04-27T03:02:26.900Z,4.13
2023-04-27T03:04:56.129Z,4.72
2023-04-27T03:07:25.043Z,4.22
2023-04-27T03:09:52.547Z,4.22
2023-04-27T03:12:20.060Z,4.38
2023-04-27T03:14:47.809Z,4.72
2023-04-27T03:17:15.364Z,4.47
2023-04-27T03:19:42.894Z,4.72
2023-04-27T03:22:11.666Z,4.28
2023-04-27T03:27:06.435Z,4.22
2023-04-27T03:29:33.911Z,4.35
2023-04-27T03:32:01.385Z,3.67
2023-04-27T03:34:28.960Z,4.70
2023-04-27T03:36:56.788Z,4.55
2023-04-27T03:39:26.010Z,4.47
2023-04-27T03:41:53.467Z,4.47
2023-04-27T03:44:21.260Z,4.63
2023-04-27T03:46:48.763Z,4.72
2023-04-27T03:49:16.431Z,4.30
2023-04-27T03:51:43.979Z,4.25
2023-04-27T03:54:11.555Z,4.60
2023-04-27T03:56:40.602Z,4.32
2023-04-27T03:59:08.088Z,4.40
2023-04-27T04:01:39.901Z,4.53
2023-04-27T04:04:07.576Z,5.07
2023-04-27T04:06:35.235Z,4.53
2023-04-27T04:09:03.651Z,4.60
2023-04-27T04:11:31.308Z,4.53
2023-04-27T04:14:01.735Z,4.88
2023-04-27T04:16:30.332Z,4.22
2023-04-27T04:18:57.777Z,4.72
2023-04-27T04:21:25.698Z,4.68
2023-04-27T04:23:53.842Z,5.15
2023-04-27T04:26:23.448Z,4.95
2023-04-27T04:28:50.823Z,4.88
2023-04-27T04:31:21.496Z,4.60
2023-04-27T04:33:49.194Z,4.82
2023-04-27T04:36:16.785Z,4.50
2023-04-27T04:38:44.277Z,4.68
2023-04-27T04:41:11.785Z,4.57
2023-04-27T04:43:39.235Z,4.28
2023-04-27T04:46:07.683Z,4.53
2023-04-27T04:48:36.840Z,5.43
2023-04-27T04:51:05.656Z,5.20
2023-04-27T04:53:33.696Z,5.10
2023-04-27T04:56:08.841Z,4.70
2023-04-27T04:58:36.569Z,4.80
2023-04-27T05:01:05.248Z,4.03
2023-04-27T05:03:33.055Z,4.57
2023-04-27T05:06:02.005Z,4.63
2023-04-27T05:08:29.492Z,4.40
2023-04-27T05:10:56.953Z,4.57
2023-04-27T05:13:27.029Z,4.72
2023-04-27T05:15:54.660Z,5.38
2023-04-27T05:18:22.292Z,4.80
2023-04-27T05:20:49.810Z,4.63
2023-04-27T05:23:18.524Z,5.03
2023-04-27T05:25:46.120Z,5.13
2023-04-27T05:28:13.528Z,5.35
2023-04-27T05:30:40.974Z,5.35
2023-04-27T05:33:08.440Z,4.93
2023-04-27T05:35:36.084Z,5.28
2023-04-27T05:38:03.861Z,4.43
2023-04-27T05:40:32.695Z,5.22
2023-04-27T05:45:30.922Z,5.13
2023-04-27T05:47:58.447Z,5.38
2023-04-27T05:50:25.938Z,4.57
2023-04-27T05:52:53.461Z,5.38
2023-04-27T05:55:21.745Z,4.72
2023-04-27T05:58:00.587Z,4.60
2023-04-27T06:00:34.284Z,4.85
2023-04-27T06:03:02.199Z,5.43
2023-04-27T06:05:29.807Z,5.97
2023-04-27T06:07:57.250Z,6.30
2023-04-27T06:10:24.798Z,5.25
2023-04-27T06:12:53.544Z,5.20
2023-04-27T06:17:48.374Z,4.35
2023-04-27T06:20:15.853Z,4.63
2023-04-27T06:22:43.951Z,4.43
2023-04-27T06:25:11.656Z,5.10
2023-04-27T06:27:39.277Z,5.68
2023-04-27T06:30:09.235Z,4.97
2023-04-27T06:32:36.787Z,5.30
2023-04-27T06:35:04.595Z,5.05
2023-04-27T06:37:32.714Z,5.32
2023-04-27T06:40:00.312Z,4.88
2023-04-27T06:42:27.756Z,4.70
2023-04-27T06:44:56.290Z,4.28
2023-04-27T06:47:25.248Z,4.95
2023-04-27T06:49:52.715Z,5.18
2023-04-27T06:52:20.481Z,5.47
2023-04-27T06:54:48.088Z,4.82
2023-04-27T06:57:15.730Z,5.13
2023-04-27T06:59:43.113Z,5.22
2023-04-27T07:02:10.749Z,4.70
2023-04-27T07:04:39.832Z,4.55
2023-04-27T07:07:07.523Z,4.28
2023-04-27T07:09:35.013Z,6.38
2023-04-27T07:12:03.058Z,6.22
2023-04-27T07:14:30.478Z,6.45
2023-04-27T07:16:57.934Z,4.78
2023-04-27T07:19:25.465Z,4.50
2023-04-27T07:21:54.238Z,4.82
2023-04-27T07:24:21.633Z,5.50
2023-04-27T07:26:49.045Z,4.43
2023-04-27T07:29:26.274Z,4.05
2023-04-27T07:31:55.817Z,5.90
2023-04-27T07:36:53.967Z,4.90
2023-04-27T07:39:23.514Z,3.90
2023-04-27T07:41:51.723Z,4.07
2023-04-27T07:44:19.543Z,5.05
2023-04-27T07:46:48.886Z,3.97
2023-04-27T07:49:16.584Z,3.95
2023-04-27T07:51:43.987Z,4.72
2023-04-27T07:54:11.579Z,4.65
2023-04-27T07:56:42.949Z,4.13
2023-04-27T07:59:10.665Z,4.55
2023-04-27T08:01:38.348Z,4.40
2023-04-27T08:04:06.268Z,4.40
2023-04-27T08:11:31.793Z,3.92
2023-04-27T08:14:00.611Z,4.20
2023-04-27T08:16:28.097Z,3.70
2023-04-27T08:18:55.736Z,4.40
2023-04-27T08:21:23.226Z,4.47
2023-04-27T08:23:50.850Z,4.70
2023-04-27T08:26:18.396Z,4.60
2023-04-27T08:28:45.868Z,3.80
2023-04-27T08:31:14.652Z,4.10
2023-04-27T08:33:42.273Z,3.50
2023-04-27T08:36:09.891Z,3.92
2023-04-27T08:38:37.273Z,4.07
2023-04-27T08:41:20.305Z,3.60
2023-04-27T08:43:53.268Z,3.78
2023-04-27T08:46:23.197Z,3.72
2023-04-27T08:48:53.116Z,4.35
2023-04-27T08:51:21.824Z,4.15
2023-04-27T08:53:51.434Z,3.50
2023-04-27T08:56:19.553Z,3.97
2023-04-27T08:58:46.981Z,3.42
2023-04-27T09:01:14.570Z,3.40
2023-04-27T09:03:46.724Z,3.50
2023-04-27T09:06:15.272Z,3.25
2023-04-27T09:08:44.510Z,3.53
2023-04-27T09:11:12.593Z,3.25
2023-04-27T09:16:09.538Z,3.25
2023-04-27T09:18:38.066Z,3.55
2023-04-27T09:21:07.289Z,2.80
2023-04-27T09:23:36.402Z,3.63
2023-04-27T09:26:09.400Z,3.55
2023-04-27T09:28:40.163Z,3.22
2023-04-27T09:31:09.395Z,3.25
2023-04-27T09:33:37.143Z,2.97
2023-04-27T09:36:07.739Z,2.88
2023-04-27T09:38:35.467Z,2.90
2023-04-27T09:41:03.353Z,2.80
2023-04-27T09:43:31.483Z,2.75
2023-04-27T09:45:59.130Z,2.70
2023-04-27T09:48:26.869Z,2.85
2023-04-27T09:50:54.312Z,2.58
2023-04-27T09:53:26.465Z,2.88
2023-04-27T09:56:08.979Z,3.15
2023-04-27T09:59:01.415Z,2.90
2023-04-27T10:01:37.500Z,3.17
2023-04-27T10:04:27.291Z,3.35
2023-04-27T10:07:00.380Z,3.10
2023-04-27T10:09:36.269Z,2.90
2023-04-27T10:12:18.527Z,3.22
2023-04-27T10:14:51.256Z,3.33
2023-04-27T10:17:19.552Z,3.63
2023-04-27T10:19:58.459Z,3.03
2023-04-27T10:22:38.626Z,2.60
2023-04-27T10:25:17.849Z,3.17
2023-04-27T10:27:50.673Z,2.85
2023-04-27T10:30:20.261Z,2.75
2023-04-27T10:32:53.115Z,2.67
2023-04-27T10:35:21.695Z,2.30
2023-04-27T10:37:49.198Z,2.72
2023-04-27T10:40:18.205Z,3.10
2023-04-27T10:42:48.169Z,3.03
2023-04-27T10:45:30.226Z,3.00
2023-04-27T10:48:00.358Z,2.58
2023-04-27T10:50:28.417Z,2.45
2023-04-27T10:55:31.162Z,2.72
2023-04-27T10:57:59.126Z,2.88
2023-04-27T11:02:57.240Z,3.05
2023-04-27T11:05:29.656Z,3.00
2023-04-27T11:08:07.302Z,2.58
2023-04-27T11:10:39.188Z,2.67
2023-04-27T11:13:09.239Z,2.53
2023-04-27T11:15:44.638Z,2.95
2023-04-27T11:18:12.182Z,2.85
2023-04-27T11:20:39.661Z,2.60
2023-04-27T11:23:07.475Z,2.78
2023-04-27T11:28:04.532Z,2.63
2023-04-27T11:33:08.103Z,2.55
2023-04-27T11:35:35.937Z,3.28
2023-04-27T11:38:03.555Z,3.08
2023-04-27T11:40:32.208Z,2.40
2023-04-27T11:43:04.198Z,3.53
2023-04-27T11:45:32.029Z,2.45
2023-04-27T11:47:59.645Z,3.03
2023-04-27T11:50:27.793Z,2.42
2023-04-27T11:52:55.959Z,2.50
2023-04-27T11:55:24.796Z,3.00
2023-04-27T11:57:57.166Z,2.92
2023-04-27T12:00:26.211Z,2.33
2023-04-27T12:02:53.934Z,2.25
2023-04-27T12:07:49.583Z,2.58
2023-04-27T12:10:17.086Z,2.53
2023-04-27T12:12:44.662Z,2.40
2023-04-27T12:15:12.263Z,2.55
2023-04-27T12:17:41.530Z,2.90
2023-04-27T12:20:10.185Z,2.60
2023-04-27T12:22:38.076Z,2.40
2023-04-27T12:25:06.414Z,2.92
2023-04-27T12:27:33.825Z,2.67
2023-04-27T12:30:01.322Z,2.70
2023-04-27T12:32:28.796Z,2.33
2023-04-27T12:34:57.651Z,2.40
2023-04-27T12:37:26.942Z,2.22
2023-04-27T12:39:55.010Z,2.60
2023-04-27T12:42:24.182Z,2.17
2023-04-27T12:44:52.363Z,2.78
2023-04-27T12:47:45.902Z,3.38
2023-04-27T12:50:10.779Z,2.60
2023-04-27T12:52:38.425Z,2.35
2023-04-27T12:55:12.860Z,2.22
2023-04-27T12:57:45.795Z,2.20
2023-04-27T13:00:14.116Z,2.05
2023-04-27T13:02:43.258Z,2.63
2023-04-27T13:05:12.158Z,3.15
2023-04-27T13:07:39.510Z,2.50
2023-04-27T13:10:07.869Z,2.42
2023-04-27T13:12:35.405Z,3.13
2023-04-27T13:15:03.345Z,3.10
2023-04-27T13:17:30.929Z,3.05
2023-04-27T13:19:58.396Z,3.20
2023-04-27T13:22:28.364Z,3.40
2023-04-27T13:24:56.251Z,2.22
2023-04-27T13:29:52.928Z,2.65
2023-04-27T13:32:20.568Z,3.05
2023-04-27T13:34:47.968Z,2.20
2023-04-27T13:37:15.488Z,2.45
2023-04-27T13:39:44.237Z,2.60
2023-04-27T13:42:12.514Z,2.40
2023-04-27T13:44:39.917Z,2.40
2023-04-27T13:47:08.045Z,2.42
2023-04-27T13:49:35.952Z,2.70
2023-04-27T13:52:03.427Z,2.50
2023-04-27T13:54:31.046Z,2.45
2023-04-27T13:56:59.913Z,2.10
2023-04-27T13:59:27.391Z,2.00
2023-04-27T14:01:55.448Z,2.10
2023-04-27T14:04:23.024Z,3.30
2023-04-27T14:06:50.731Z,3.13
2023-04-27T14:09:18.830Z,2.58
2023-04-27T14:11:55.703Z,2.00
2023-04-27T14:14:25.796Z,2.22
2023-04-27T14:16:53.676Z,2.72
2023-04-27T14:21:51.097Z,2.10
2023-04-27T14:24:18.746Z,1.75
2023-04-27T14:26:47.638Z,2.40
2023-04-27T14:29:15.515Z,2.10
2023-04-27T14:31:45.476Z,2.90
2023-04-27T14:34:17.898Z,2.58
2023-04-27T14:36:46.503Z,2.42
2023-04-27T14:39:14.407Z,2.67
2023-04-27T14:41:42.117Z,2.08
2023-04-27T14:44:09.636Z,2.38
2023-04-27T14:46:37.145Z,2.22
2023-04-27T14:49:06.083Z,2.45
2023-04-27T14:51:33.594Z,1.90
2023-04-27T14:54:02.208Z,2.20
2023-04-27T14:56:29.722Z,2.42
2023-04-27T14:58:57.160Z,1.90
2023-04-27T15:01:24.609Z,2.20
2023-04-27T15:03:54.140Z,2.75
2023-04-27T15:06:24.173Z,2.28
2023-04-27T15:08:51.660Z,2.45
2023-04-27T15:11:19.135Z,2.20
2023-04-27T15:13:46.871Z,2.03
2023-04-27T15:16:14.431Z,1.75
2023-04-27T15:18:42.247Z,2.00
2023-04-27T15:21:09.947Z,2.00
2023-04-27T15:23:39.612Z,2.20
2023-04-27T15:26:07.137Z,2.00
2023-04-27T15:28:34.732Z,1.52
2023-04-27T15:31:02.141Z,2.60
2023-04-27T15:33:29.656Z,3.08
2023-04-27T15:35:58.921Z,3.33
2023-04-27T15:38:26.655Z,2.20
2023-04-27T15:40:55.388Z,2.40
2023-04-27T15:43:22.756Z,2.90
2023-04-27T15:48:17.836Z,2.38
2023-04-27T15:50:47.041Z,2.15
2023-04-27T15:53:14.522Z,2.30
2023-04-27T15:55:42.307Z,2.50
2023-04-27T16:00:38.607Z,2.15
2023-04-27T16:03:09.397Z,2.15
2023-04-27T16:05:38.264Z,1.98
2023-04-27T16:08:06.071Z,1.90
2023-04-27T16:13:01.017Z,2.05
2023-04-27T16:15:29.914Z,2.58
2023-04-27T16:17:57.382Z,2.33
2023-04-27T16:20:25.964Z,2.35
2023-04-27T16:22:53.924Z,2.30
2023-04-27T16:25:21.438Z,3.25
2023-04-27T16:27:49.067Z,2.47
2023-04-27T16:30:16.505Z,2.03
2023-04-27T16:32:45.254Z,2.20
2023-04-27T16:35:13.045Z,2.50
2023-04-27T16:37:40.576Z,1.85
2023-04-27T16:40:09.101Z,2.03
2023-04-27T16:42:36.585Z,2.30
2023-04-27T16:45:04.984Z,2.60
2023-04-27T16:47:32.946Z,2.70
2023-04-27T16:50:01.804Z,2.28
2023-04-27T16:52:29.366Z,2.20
2023-04-27T16:54:56.850Z,2.20
2023-04-27T16:57:24.379Z,2.28
2023-04-27T16:59:51.858Z,2.10
2023-04-27T17:02:25.026Z,2.00
2023-04-27T17:04:53.902Z,1.83
2023-04-27T17:07:22.906Z,2.00
2023-04-27T17:09:50.394Z,1.70
2023-04-27T17:12:18.001Z,2.15
2023-04-27T17:14:45.831Z,3.10
2023-04-27T17:19:40.733Z,2.40
2023-04-27T17:24:39.956Z,2.10
2023-04-27T17:27:07.496Z,1.50
2023-04-27T17:29:34.964Z,1.80
2023-04-27T17:32:02.487Z,1.90
2023-04-27T17:34:29.984Z,1.85
2023-04-27T17:36:57.688Z,2.30
2023-04-27T17:39:25.550Z,1.77
2023-04-27T17:44:22.172Z,2.00
2023-04-27T17:46:51.401Z,1.95
2023-04-27T17:49:19.421Z,2.13
2023-04-27T17:54:14.466Z,1.70
2023-04-27T17:56:42.772Z,2.17
2023-04-27T17:59:12.988Z,1.90
2023-04-27T18:01:40.599Z,1.88
2023-04-27T18:04:08.212Z,2.20
2023-04-27T18:06:36.375Z,2.38
2023-04-27T18:11:31.135Z,2.08
2023-04-27T18:13:58.622Z,2.30
2023-04-27T18:16:27.550Z,2.58
2023-04-27T18:18:55.160Z,2.33
2023-04-27T18:21:22.631Z,2.38
2023-04-27T18:23:50.100Z,2.60
2023-04-27T18:26:17.865Z,2.40
2023-04-27T18:28:45.229Z,2.45
2023-04-27T18:31:16.142Z,2.78
2023-04-27T18:33:45.610Z,2.83
2023-04-27T18:36:13.197Z,2.28
2023-04-27T18:38:40.862Z,2.85
2023-04-27T18:41:08.284Z,2.70
2023-04-27T18:43:38.973Z,2.78
2023-04-27T18:46:07.805Z,2.50
2023-04-27T18:48:35.645Z,2.60
2023-04-27T18:51:04.767Z,2.92
2023-04-27T18:53:32.256Z,2.65
2023-04-27T18:56:00.622Z,2.80
2023-04-27T18:58:28.060Z,2.63
2023-04-27T19:00:55.538Z,2.33
2023-04-27T19:03:23.913Z,2.63
2023-04-27T19:05:52.464Z,2.75
2023-04-27T19:08:21.305Z,3.03
2023-04-27T19:10:50.877Z,2.80
2023-04-27T19:13:18.241Z,3.42
2023-04-27T19:15:45.743Z,3.22
2023-04-27T19:18:13.233Z,3.15
2023-04-27T19:20:40.825Z,3.42
2023-04-27T19:23:12.059Z,2.85
2023-04-27T19:25:40.925Z,3.13
2023-04-27T19:28:08.444Z,3.78
2023-04-27T19:30:36.002Z,3.08
2023-04-27T19:33:04.225Z,3.40
2023-04-27T19:35:31.628Z,3.33
2023-04-27T19:37:59.092Z,4.00
2023-04-27T19:40:26.604Z,3.20
2023-04-27T19:42:55.596Z,2.78
2023-04-27T19:45:23.619Z,3.35
2023-04-27T19:47:51.270Z,3.45
2023-04-27T19:50:18.740Z,4.30
2023-04-27T19:52:46.717Z,3.75
2023-04-27T19:55:14.422Z,4.00
2023-04-27T19:57:41.939Z,3.65
2023-04-27T20:00:12.179Z,4.00
2023-04-27T20:02:42.822Z,4.28
2023-04-27T20:05:11.403Z,4.38
2023-04-27T20:07:39.113Z,4.50
2023-04-27T20:10:07.452Z,3.53
2023-04-27T20:15:06.736Z,3.80
2023-04-27T20:17:35.578Z,4.18
2023-04-27T20:20:06.364Z,4.15
2023-04-27T20:22:33.728Z,4.13
2023-04-27T20:25:01.117Z,4.63
2023-04-27T20:27:28.574Z,4.03
2023-04-27T20:29:56.574Z,4.57
2023-04-27T20:32:24.238Z,4.10
2023-04-27T20:34:53.162Z,4.57
2023-04-27T20:37:21.215Z,4.45
2023-04-27T20:39:48.621Z,4.60
2023-04-27T20:42:16.047Z,4.38
2023-04-27T20:44:46.042Z,5.07
2023-04-27T20:47:14.763Z,4.88
2023-04-27T20:49:42.302Z,4.45
2023-04-27T20:52:11.064Z,4.93
2023-04-27T20:54:38.710Z,4.20
2023-04-27T20:57:13.283Z,4.30
2023-04-27T20:59:41.074Z,4.40
2023-04-27T21:02:08.816Z,4.28
2023-04-27T21:04:36.469Z,4.22
2023-04-27T21:07:04.073Z,4.20
2023-04-27T21:09:32.923Z,4.40
2023-04-27T21:12:00.444Z,4.35
2023-04-27T21:14:28.029Z,4.68
2023-04-27T21:16:55.777Z,4.50
2023-04-27T21:19:23.315Z,4.07
2023-04-27T21:21:50.900Z,4.13
2023-04-27T21:24:19.552Z,4.22
2023-04-27T21:26:48.672Z,4.25
2023-04-27T21:29:16.375Z,4.30
2023-04-27T21:31:43.755Z,4.65
2023-04-27T21:34:11.159Z,4.40
2023-04-27T21:36:38.531Z,4.35
2023-04-27T21:39:06.263Z,5.13
2023-04-27T21:41:34.483Z,4.53
2023-04-27T21:44:03.590Z,4.30
2023-04-27T21:46:30.969Z,4.55
2023-04-27T21:48:58.298Z,4.85
2023-04-27T21:51:25.712Z,4.25
2023-04-27T21:53:53.201Z,4.45
2023-04-27T21:56:21.115Z,4.45
2023-04-27T21:58:48.530Z,4.60
2023-04-27T22:01:17.320Z,4.63
2023-04-27T22:03:45.013Z,4.70
2023-04-27T22:06:12.508Z,4.68
2023-04-27T22:08:39.873Z,5.15
2023-04-27T22:11:07.926Z,4.00
2023-04-27T22:13:35.340Z,4.40
2023-04-27T22:16:02.785Z,4.63
2023-04-27T22:18:32.621Z,4.85
2023-04-27T22:21:00.060Z,4.82
2023-04-27T22:23:27.510Z,4.72
2023-04-27T22:25:54.914Z,5.18
2023-04-27T22:28:23.044Z,4.60
2023-04-27T22:30:50.586Z,5.05
2023-04-27T22:33:18.362Z,4.97
2023-04-27T22:35:47.519Z,4.65
2023-04-27T22:38:14.943Z,5.63
2023-04-27T22:40:42.279Z,5.80
2023-04-27T22:43:09.665Z,5.75
2023-04-27T22:45:38.703Z,4.70
2023-04-27T22:48:07.116Z,5.13
2023-04-27T22:50:34.589Z,5.28
2023-04-27T22:53:03.664Z,4.82
2023-04-27T22:55:31.047Z,5.35
2023-04-27T22:57:58.529Z,4.80
2023-04-27T23:00:26.270Z,4.75
2023-04-27T23:02:54.025Z,5.15
2023-04-27T23:05:21.896Z,5.28
2023-04-27T23:07:50.440Z,4.93
2023-04-27T23:10:19.408Z,5.35
2023-04-27T23:12:47.317Z,5.28
2023-04-27T23:15:15.162Z,5.32
2023-04-27T23:17:43.473Z,5.20
2023-04-27T23:20:24.622Z,4.30
2023-04-27T23:22:54.596Z,6.05
2023-04-27T23:25:23.517Z,5.20
2023-04-27T23:27:52.603Z,5.82
2023-04-27T23:30:21.388Z,5.25
2023-04-27T23:32:48.901Z,4.97
2023-04-27T23:35:16.394Z,5.00
2023-04-27T23:37:44.297Z,5.47
2023-04-27T23:40:12.461Z,5.60
2023-04-27T23:42:41.545Z,4.85
2023-04-27T23:45:09.751Z,5.10
2023-04-27T23:47:37.957Z,5.75
2023-04-27T23:50:06.375Z,5.28
2023-04-27T23:52:33.943Z,5.43
2023-04-27T23:55:01.622Z,5.00
2023-04-27T23:57:29.233Z,4.82
2023-04-27T23:59:58.003Z,5.00
